Terminal Aerodrome Forecast
Issued by NWS

Home | Current Version | Previous Version | Text Only | Print | Product List | Glossary Off
Versions: 1 2 3 4 5 6 7 8 9 10 11 12 13 14 15 16 17

396
FTUS43 KMPX 170528
TAFRWF
TAF
KRWF 170528Z 1706/1806 07004KT 6SM BR OVC008
     FM171800 VRB03KT P6SM OVC015
     FM172100 VRB03KT P6SM BKN022
     FM180000 19004KT P6SM SCT025=

USA.gov is the U.S. government's official web portal to all federal, state and local government web resources and services.